Bo Machete, Puerto Rico
Current Conditions -  °F | °C
As of 3:50 PM on Saturday 20 Dec 2014 (Local Time) from TJPS Reporting Station
Few Clouds Few Clouds  
Wind Chill: 86°   Ceiling: Unl
Heat Index: 92°   Visibility: 10mi
Dew Point: 72°   Wind: 12mph
Humidity: 62%   Direction: 100°E
Pressure: 29.93"   Gusts: 17mph
Location:  17.9849°N, 66.1175°W
Report Text: TJPS 201950Z 10010G15KT 10SM FEW030 30/22 A2993
Loading
Personal Weather Stations






























Interactive Weather Map New forecast layout! Learn more

10-Day Weather Forecast

Advertisements
Track Severe Weather on mobile